createdAt,value
2017-01-08T00:00:28.556Z,0
2017-01-08T00:01:09.034Z,0
2017-01-08T00:01:49.535Z,0
2017-01-08T00:02:30.034Z,0
2017-01-08T00:03:10.523Z,0
2017-01-08T00:03:51.037Z,0
2017-01-08T00:04:31.533Z,0
2017-01-08T00:05:12.018Z,0
2017-01-08T00:05:52.490Z,0
2017-01-08T00:06:32.962Z,0
2017-01-08T00:07:13.458Z,0
2017-01-08T00:07:53.960Z,0
2017-01-08T00:08:34.423Z,0
2017-01-08T00:09:14.930Z,0
2017-01-08T00:09:55.382Z,0
2017-01-08T00:10:35.919Z,0
2017-01-08T00:11:16.399Z,0
2017-01-08T00:11:56.898Z,0
2017-01-08T00:12:37.381Z,0
2017-01-08T00:13:17.866Z,0
2017-01-08T00:13:58.359Z,0
2017-01-08T00:14:38.808Z,0
2017-01-08T00:15:19.286Z,0
2017-01-08T00:15:59.759Z,0
2017-01-08T00:16:40.253Z,0
2017-01-08T00:17:20.752Z,0
2017-01-08T00:18:01.245Z,0
2017-01-08T00:18:41.765Z,0
2017-01-08T00:19:22.239Z,0
2017-01-08T00:20:02.722Z,0
2017-01-08T00:20:43.250Z,0
2017-01-08T00:21:23.709Z,0
2017-01-08T00:22:04.162Z,0
2017-01-08T00:22:45.304Z,0
2017-01-08T00:23:25.787Z,0
2017-01-08T00:24:06.262Z,0
2017-01-08T00:24:46.750Z,0
2017-01-08T00:25:27.231Z,0
2017-01-08T00:26:07.712Z,0
2017-01-08T00:26:48.211Z,0
2017-01-08T00:27:28.676Z,0
2017-01-08T00:28:09.183Z,0
2017-01-08T00:28:49.669Z,0
2017-01-08T00:29:30.190Z,0
2017-01-08T00:30:10.631Z,0
2017-01-08T00:30:51.148Z,0
2017-01-08T00:31:31.640Z,0
2017-01-08T00:32:12.130Z,0
2017-01-08T00:32:52.621Z,0
2017-01-08T00:33:33.089Z,0
2017-01-08T00:34:13.557Z,0
2017-01-08T00:34:54.040Z,0
2017-01-08T00:35:34.534Z,0
2017-01-08T00:36:15.025Z,0
2017-01-08T00:36:55.517Z,0
2017-01-08T00:37:36.038Z,0
2017-01-08T00:38:16.535Z,0
2017-01-08T00:38:57.010Z,0
2017-01-08T00:39:37.505Z,0
2017-01-08T00:40:17.994Z,0
2017-01-08T00:40:58.469Z,0
2017-01-08T00:41:38.974Z,0
2017-01-08T00:42:19.424Z,0
2017-01-08T00:42:59.927Z,0
2017-01-08T00:43:40.432Z,0
2017-01-08T00:44:20.981Z,0
2017-01-08T00:45:01.470Z,0
2017-01-08T00:45:41.942Z,0
2017-01-08T00:46:22.448Z,0
2017-01-08T00:47:02.936Z,0
2017-01-08T00:47:43.416Z,0
2017-01-08T00:48:23.910Z,0
2017-01-08T00:49:04.414Z,0
2017-01-08T00:49:44.916Z,0
2017-01-08T00:50:25.395Z,0
2017-01-08T00:51:05.885Z,0
2017-01-08T00:51:46.388Z,0
2017-01-08T00:52:26.978Z,0
2017-01-08T00:53:07.423Z,0
2017-01-08T00:53:47.921Z,0
2017-01-08T00:54:28.418Z,0
2017-01-08T00:55:08.893Z,0
2017-01-08T00:55:49.383Z,0
2017-01-08T00:56:29.886Z,0
2017-01-08T00:57:10.346Z,0
2017-01-08T00:57:50.846Z,0
2017-01-08T00:58:31.334Z,0
2017-01-08T00:59:11.806Z,0
2017-01-08T00:59:52.298Z,0
2017-01-08T01:00:32.781Z,0
2017-01-08T01:01:13.261Z,0
2017-01-08T01:01:53.730Z,0
2017-01-08T01:02:34.204Z,0
2017-01-08T01:03:14.687Z,0
2017-01-08T01:03:55.174Z,0
2017-01-08T01:04:35.643Z,0
2017-01-08T01:05:16.131Z,0
2017-01-08T01:05:56.606Z,0
2017-01-08T01:06:37.129Z,0
2017-01-08T01:07:17.587Z,0
2017-01-08T01:07:58.088Z,0
2017-01-08T01:08:38.577Z,0
2017-01-08T01:09:19.049Z,0
2017-01-08T01:09:59.562Z,0
2017-01-08T01:10:40.034Z,0
2017-01-08T01:11:20.522Z,0
2017-01-08T01:12:01.032Z,0
2017-01-08T01:12:41.484Z,0
2017-01-08T01:13:21.970Z,0
2017-01-08T01:14:02.440Z,0
2017-01-08T01:14:42.909Z,0
2017-01-08T01:15:23.425Z,0
2017-01-08T01:16:03.890Z,0
2017-01-08T01:16:44.413Z,0
2017-01-08T01:17:24.871Z,0
2017-01-08T01:18:05.382Z,0
2017-01-08T01:18:45.848Z,0
2017-01-08T01:19:26.323Z,0
2017-01-08T01:20:06.805Z,0
2017-01-08T01:20:47.264Z,0
2017-01-08T01:21:27.780Z,0
2017-01-08T01:22:08.250Z,0
2017-01-08T01:22:48.734Z,0
2017-01-08T01:23:29.248Z,0
2017-01-08T01:24:09.701Z,0
2017-01-08T01:24:50.192Z,0
2017-01-08T01:25:30.748Z,0
2017-01-08T01:26:11.175Z,0
2017-01-08T01:26:51.670Z,0
2017-01-08T01:27:32.172Z,0
2017-01-08T01:28:12.636Z,0
2017-01-08T01:28:53.131Z,0
2017-01-08T01:29:33.599Z,0
2017-01-08T01:30:14.087Z,0
2017-01-08T01:30:54.568Z,0
2017-01-08T01:31:35.067Z,0
2017-01-08T01:32:15.540Z,0
2017-01-08T01:32:56.018Z,0
2017-01-08T01:33:36.493Z,0
2017-01-08T01:34:16.986Z,0
2017-01-08T01:34:57.484Z,0
2017-01-08T01:35:37.941Z,0
2017-01-08T01:36:18.448Z,0
2017-01-08T01:36:58.914Z,0
2017-01-08T01:37:39.418Z,0
2017-01-08T01:38:19.915Z,0
2017-01-08T01:39:00.412Z,0
2017-01-08T01:39:40.929Z,0
2017-01-08T01:40:21.393Z,0
2017-01-08T01:41:01.899Z,0
2017-01-08T01:41:42.391Z,0
2017-01-08T01:42:22.860Z,0
2017-01-08T01:43:03.356Z,0
2017-01-08T01:43:43.848Z,0
2017-01-08T01:44:24.358Z,0
2017-01-08T01:45:04.832Z,0
2017-01-08T01:45:45.312Z,0
2017-01-08T01:46:25.820Z,0
2017-01-08T01:47:06.300Z,0
2017-01-08T01:47:46.777Z,0
2017-01-08T01:48:27.282Z,0
2017-01-08T01:49:07.757Z,0
2017-01-08T01:49:48.257Z,0
2017-01-08T01:50:28.751Z,0
2017-01-08T01:51:09.233Z,0
2017-01-08T01:51:49.732Z,0
2017-01-08T01:52:30.217Z,0
2017-01-08T01:53:10.695Z,0
2017-01-08T01:53:51.191Z,0
2017-01-08T01:54:31.720Z,0
2017-01-08T01:55:12.183Z,0
2017-01-08T01:55:52.675Z,0
2017-01-08T01:56:33.168Z,0
2017-01-08T01:57:13.680Z,0
2017-01-08T01:57:54.181Z,0
2017-01-08T01:58:34.671Z,0
2017-01-08T01:59:15.157Z,0
2017-01-08T01:59:55.636Z,0
2017-01-08T02:00:36.128Z,0
2017-01-08T02:01:16.620Z,0
2017-01-08T02:01:57.112Z,0
2017-01-08T02:02:37.601Z,0
2017-01-08T02:03:18.063Z,0
2017-01-08T02:03:58.550Z,0
2017-01-08T02:04:39.022Z,0
2017-01-08T02:05:19.520Z,0
2017-01-08T02:06:00.014Z,0
2017-01-08T02:06:40.481Z,0
2017-01-08T02:07:20.966Z,0
2017-01-08T02:08:01.468Z,0
2017-01-08T02:08:41.953Z,0
2017-01-08T02:09:22.444Z,0
2017-01-08T02:10:02.938Z,0
2017-01-08T02:10:43.410Z,0
2017-01-08T02:11:23.930Z,0
2017-01-08T02:12:04.401Z,0
2017-01-08T02:12:44.879Z,0
2017-01-08T02:13:25.373Z,0
2017-01-08T02:14:05.876Z,0
2017-01-08T02:14:46.370Z,0
2017-01-08T02:15:26.845Z,0
2017-01-08T02:16:07.342Z,0
2017-01-08T02:16:47.881Z,0
2017-01-08T02:17:28.401Z,0
2017-01-08T02:18:08.857Z,0
2017-01-08T02:18:49.341Z,0
2017-01-08T02:19:29.812Z,0
2017-01-08T02:20:10.292Z,0
2017-01-08T02:20:50.764Z,0
2017-01-08T02:21:31.250Z,0
2017-01-08T02:22:11.754Z,0
2017-01-08T02:22:52.259Z,0
2017-01-08T02:23:32.777Z,0
2017-01-08T02:24:13.266Z,0
2017-01-08T02:24:53.748Z,0
2017-01-08T02:25:34.258Z,0
2017-01-08T02:26:14.746Z,0
2017-01-08T02:26:55.272Z,0
2017-01-08T02:27:35.732Z,0
2017-01-08T02:28:16.229Z,0
2017-01-08T02:28:56.713Z,0
2017-01-08T02:29:37.195Z,0
2017-01-08T02:30:17.703Z,0
2017-01-08T02:30:58.165Z,0
2017-01-08T02:31:38.669Z,0
2017-01-08T02:32:19.139Z,0
2017-01-08T02:32:59.624Z,0
2017-01-08T02:33:40.095Z,0
2017-01-08T02:34:20.580Z,0
2017-01-08T02:35:01.079Z,0
2017-01-08T02:35:41.542Z,0
2017-01-08T02:36:22.034Z,0
2017-01-08T02:37:02.520Z,0
2017-01-08T02:37:43.005Z,0
2017-01-08T02:38:23.469Z,0
2017-01-08T02:39:03.947Z,0
2017-01-08T02:39:44.430Z,0
2017-01-08T02:40:24.916Z,0
2017-01-08T02:41:05.412Z,0
2017-01-08T02:41:45.911Z,0
2017-01-08T02:42:26.386Z,0
2017-01-08T02:43:06.857Z,0
2017-01-08T02:43:47.374Z,0
2017-01-08T02:44:27.856Z,0
2017-01-08T02:45:08.315Z,0
2017-01-08T02:47:36.686Z,0
2017-01-08T02:48:17.168Z,0
2017-01-08T02:48:57.658Z,0
2017-01-08T02:49:38.166Z,0
2017-01-08T02:50:18.676Z,0
2017-01-08T02:50:59.145Z,0
2017-01-08T02:51:39.656Z,0
2017-01-08T02:52:20.138Z,0
2017-01-08T02:53:00.652Z,0
2017-01-08T02:53:41.113Z,0
2017-01-08T02:54:21.587Z,0
2017-01-08T02:55:02.039Z,0
2017-01-08T02:55:42.536Z,0
2017-01-08T02:56:23.020Z,0
2017-01-08T02:57:03.515Z,0
2017-01-08T02:57:44.017Z,0
2017-01-08T02:58:24.475Z,0
2017-01-08T02:59:04.965Z,0
2017-01-08T02:59:45.439Z,0
2017-01-08T03:00:25.921Z,0
2017-01-08T03:01:06.399Z,0
2017-01-08T03:01:46.900Z,0
2017-01-08T03:02:27.387Z,0
2017-01-08T03:03:07.850Z,0
2017-01-08T03:03:48.344Z,0
2017-01-08T03:04:28.817Z,0
2017-01-08T03:05:09.344Z,0
2017-01-08T03:05:49.810Z,0
2017-01-08T03:06:30.275Z,0
2017-01-08T03:07:10.770Z,0
2017-01-08T03:07:51.316Z,0
2017-01-08T03:08:31.800Z,0
2017-01-08T03:09:12.313Z,0
2017-01-08T03:09:52.772Z,0
2017-01-08T03:10:33.266Z,0
2017-01-08T03:11:13.758Z,0
2017-01-08T03:11:54.236Z,0
2017-01-08T03:12:34.748Z,0
2017-01-08T03:13:15.237Z,0
2017-01-08T03:13:55.728Z,0
2017-01-08T03:14:36.234Z,0
2017-01-08T03:15:16.706Z,0
2017-01-08T03:15:57.228Z,0
2017-01-08T03:16:37.713Z,0
2017-01-08T03:17:18.167Z,0
2017-01-08T03:17:58.656Z,0
2017-01-08T03:18:39.138Z,0
2017-01-08T03:19:19.598Z,0
2017-01-08T03:20:00.111Z,0
2017-01-08T03:20:40.600Z,0
2017-01-08T03:21:21.046Z,0
2017-01-08T03:22:01.530Z,0
2017-01-08T03:22:42.029Z,0
2017-01-08T03:23:22.532Z,0
2017-01-08T03:24:03.005Z,0
2017-01-08T03:24:43.499Z,0
2017-01-08T03:25:23.979Z,0
2017-01-08T03:26:04.467Z,0
2017-01-08T03:26:44.932Z,0
2017-01-08T03:27:25.421Z,0
2017-01-08T03:28:05.944Z,0
2017-01-08T03:28:46.436Z,0
2017-01-08T03:29:26.907Z,0
2017-01-08T03:30:07.375Z,0
2017-01-08T03:30:47.878Z,0
2017-01-08T03:31:28.368Z,0
2017-01-08T03:32:08.836Z,0
2017-01-08T03:32:49.300Z,0
2017-01-08T03:33:29.805Z,0
2017-01-08T03:34:10.291Z,0
2017-01-08T03:34:50.797Z,0
2017-01-08T03:35:31.262Z,0
2017-01-08T03:36:11.766Z,0
2017-01-08T03:36:52.244Z,0
2017-01-08T03:37:32.732Z,0
2017-01-08T03:38:13.227Z,0
2017-01-08T03:38:53.726Z,0
2017-01-08T03:39:34.222Z,0
2017-01-08T03:40:14.712Z,0
2017-01-08T03:40:55.172Z,0
2017-01-08T03:41:35.655Z,0
2017-01-08T03:42:16.148Z,0
2017-01-08T03:42:56.622Z,0
2017-01-08T03:43:37.111Z,0
2017-01-08T03:44:17.580Z,0
2017-01-08T03:44:58.054Z,0
2017-01-08T03:45:38.512Z,0
2017-01-08T03:46:19.001Z,0
2017-01-08T03:46:59.458Z,0
2017-01-08T03:47:39.930Z,0
2017-01-08T03:48:20.415Z,0
2017-01-08T03:49:00.952Z,0
2017-01-08T03:49:41.445Z,0
2017-01-08T03:50:22.066Z,0
2017-01-08T03:51:02.586Z,0
2017-01-08T03:51:43.071Z,0
2017-01-08T03:52:23.570Z,0
2017-01-08T03:53:04.051Z,0
2017-01-08T03:53:44.521Z,0
2017-01-08T03:54:25.017Z,0
2017-01-08T03:55:05.504Z,0
2017-01-08T03:55:45.988Z,0
2017-01-08T03:56:26.516Z,0
2017-01-08T03:57:06.982Z,0
2017-01-08T03:57:47.458Z,0
2017-01-08T03:58:27.961Z,0
2017-01-08T03:59:08.464Z,0
2017-01-08T03:59:48.949Z,0
2017-01-08T04:00:29.444Z,0
2017-01-08T04:01:09.928Z,0
2017-01-08T04:01:50.429Z,0
2017-01-08T04:02:30.944Z,0
2017-01-08T04:03:11.434Z,0
2017-01-08T04:03:51.932Z,0
2017-01-08T04:04:32.357Z,0
2017-01-08T04:05:12.874Z,0
2017-01-08T04:05:53.363Z,0
2017-01-08T04:06:33.838Z,0
2017-01-08T04:07:14.318Z,0
2017-01-08T04:07:54.777Z,0
2017-01-08T04:08:35.256Z,0
2017-01-08T04:09:15.737Z,0
2017-01-08T04:09:56.249Z,0
2017-01-08T04:10:36.712Z,0
2017-01-08T04:11:17.199Z,0
2017-01-08T04:11:57.688Z,0
2017-01-08T04:12:38.146Z,0
2017-01-08T04:13:18.630Z,0
2017-01-08T04:13:59.126Z,0
2017-01-08T04:14:39.582Z,0
2017-01-08T04:15:20.059Z,0
2017-01-08T04:16:00.519Z,0
2017-01-08T04:16:41.005Z,0
2017-01-08T04:17:21.490Z,0
2017-01-08T04:18:01.973Z,0
2017-01-08T04:18:42.460Z,0
2017-01-08T04:19:22.917Z,0
2017-01-08T04:20:03.392Z,0
2017-01-08T04:20:43.902Z,0
2017-01-08T04:21:24.368Z,0
2017-01-08T04:22:04.869Z,0
2017-01-08T04:22:45.353Z,0
2017-01-08T04:23:25.814Z,0
2017-01-08T04:24:06.322Z,0
2017-01-08T04:24:46.805Z,0
2017-01-08T04:25:27.298Z,0
2017-01-08T04:26:07.764Z,0
2017-01-08T04:26:48.238Z,0
2017-01-08T04:27:28.769Z,0
2017-01-08T04:28:09.256Z,0
2017-01-08T04:28:49.704Z,0
2017-01-08T04:29:30.214Z,0
2017-01-08T04:30:10.672Z,0
2017-01-08T04:30:51.143Z,0
2017-01-08T04:31:31.630Z,0
2017-01-08T04:32:12.115Z,0
2017-01-08T04:32:52.616Z,0
2017-01-08T04:33:33.116Z,0
2017-01-08T04:34:13.582Z,0
2017-01-08T04:34:54.034Z,0
2017-01-08T04:35:34.517Z,0
2017-01-08T04:36:15.001Z,0
2017-01-08T04:36:55.491Z,0
2017-01-08T04:37:35.959Z,0
2017-01-08T04:38:16.459Z,0
2017-01-08T04:38:56.909Z,0
2017-01-08T04:39:37.401Z,0
2017-01-08T04:40:17.883Z,0
2017-01-08T04:40:58.367Z,0
2017-01-08T04:41:38.862Z,0
2017-01-08T04:42:19.340Z,0
2017-01-08T04:42:59.839Z,0
2017-01-08T04:43:40.312Z,0
2017-01-08T04:44:20.805Z,0
2017-01-08T04:45:01.307Z,0
2017-01-08T04:45:41.779Z,0
2017-01-08T04:46:22.240Z,0
2017-01-08T04:47:02.736Z,0
2017-01-08T04:47:43.211Z,0
2017-01-08T04:48:23.685Z,0
2017-01-08T04:49:04.157Z,0
2017-01-08T04:49:44.626Z,0
2017-01-08T04:50:25.109Z,0
2017-01-08T04:51:05.604Z,0
2017-01-08T04:51:46.057Z,0
2017-01-08T04:52:26.568Z,0
2017-01-08T04:53:07.034Z,0
2017-01-08T04:53:47.507Z,0
2017-01-08T04:54:28.001Z,0
2017-01-08T04:55:08.465Z,0
2017-01-08T04:55:48.957Z,0
2017-01-08T04:56:29.442Z,0
2017-01-08T04:57:09.928Z,0
2017-01-08T04:57:50.409Z,0
2017-01-08T04:58:30.901Z,0
2017-01-08T04:59:11.381Z,0
2017-01-08T04:59:51.892Z,0
2017-01-08T05:00:32.367Z,0
2017-01-08T05:01:12.848Z,0
2017-01-08T05:01:54.940Z,0
2017-01-08T05:02:35.448Z,0
2017-01-08T05:03:15.975Z,0
2017-01-08T05:03:56.408Z,0
2017-01-08T05:04:36.901Z,0
2017-01-08T05:05:17.343Z,0
2017-01-08T05:05:57.826Z,0
2017-01-08T05:06:38.317Z,0
2017-01-08T05:07:18.798Z,0
2017-01-08T05:07:59.304Z,0
2017-01-08T05:08:39.776Z,0
2017-01-08T05:09:20.275Z,0
2017-01-08T05:10:00.785Z,0
2017-01-08T05:10:41.261Z,0
2017-01-08T05:11:21.761Z,0
2017-01-08T05:12:02.241Z,0
2017-01-08T05:12:42.698Z,0
2017-01-08T05:13:23.205Z,0
2017-01-08T05:14:03.669Z,0
2017-01-08T05:14:44.156Z,0
2017-01-08T05:15:24.646Z,0
2017-01-08T05:16:05.133Z,0
2017-01-08T05:16:45.623Z,0
2017-01-08T05:17:26.092Z,0
2017-01-08T05:18:06.576Z,0
2017-01-08T05:18:47.057Z,0
2017-01-08T05:19:27.559Z,0
2017-01-08T05:20:08.024Z,0
2017-01-08T05:20:48.509Z,0
2017-01-08T05:21:28.975Z,0
2017-01-08T05:22:09.471Z,0
2017-01-08T05:22:49.956Z,0
2017-01-08T05:23:30.451Z,0
2017-01-08T05:24:10.897Z,0
2017-01-08T05:24:51.382Z,0
2017-01-08T05:25:31.929Z,0
2017-01-08T05:26:12.385Z,0
2017-01-08T05:26:52.847Z,0
2017-01-08T05:27:33.333Z,0
2017-01-08T05:28:13.826Z,0
2017-01-08T05:28:54.308Z,0
2017-01-08T05:29:34.812Z,0
2017-01-08T05:30:15.282Z,0
2017-01-08T05:30:55.792Z,0
2017-01-08T05:31:36.269Z,0
2017-01-08T05:32:16.776Z,0
2017-01-08T05:32:57.250Z,0
2017-01-08T05:33:37.764Z,0
2017-01-08T05:34:18.258Z,0
2017-01-08T05:34:58.732Z,0
2017-01-08T05:35:39.248Z,0
2017-01-08T05:36:19.728Z,0
2017-01-08T05:37:00.232Z,0
2017-01-08T05:37:40.733Z,0
2017-01-08T05:38:21.231Z,0
2017-01-08T05:39:01.714Z,0
2017-01-08T05:39:42.174Z,0
2017-01-08T05:40:22.665Z,0
2017-01-08T05:41:03.147Z,0
2017-01-08T05:41:43.625Z,0
2017-01-08T05:42:24.129Z,0
2017-01-08T05:43:04.606Z,0
2017-01-08T05:43:45.079Z,0
2017-01-08T05:44:25.594Z,0
2017-01-08T05:45:06.057Z,0
2017-01-08T05:45:46.535Z,0
2017-01-08T05:46:27.047Z,0
2017-01-08T05:47:07.517Z,0
2017-01-08T05:47:48.036Z,0
2017-01-08T05:48:28.501Z,0
2017-01-08T05:49:08.975Z,0
2017-01-08T05:49:49.458Z,0
2017-01-08T05:50:29.949Z,0
2017-01-08T05:51:10.437Z,0
2017-01-08T05:51:50.939Z,0
2017-01-08T05:52:31.397Z,0
2017-01-08T05:53:11.891Z,0
2017-01-08T05:53:52.365Z,0
2017-01-08T05:54:32.860Z,0
2017-01-08T05:55:13.385Z,0
2017-01-08T05:55:53.845Z,0
2017-01-08T05:56:34.351Z,0
2017-01-08T05:57:14.817Z,0
2017-01-08T05:57:55.296Z,0
2017-01-08T05:58:35.799Z,0
2017-01-08T05:59:16.285Z,0
2017-01-08T05:59:56.757Z,0
2017-01-08T06:00:37.262Z,0
2017-01-08T06:01:17.712Z,0
2017-01-08T06:01:58.209Z,0
2017-01-08T06:02:38.700Z,0
2017-01-08T06:03:19.184Z,0
2017-01-08T06:03:59.712Z,0
2017-01-08T06:04:40.173Z,0
2017-01-08T06:05:20.667Z,0
2017-01-08T06:06:01.176Z,0
2017-01-08T06:06:41.618Z,0
2017-01-08T06:07:22.097Z,0
2017-01-08T06:08:02.629Z,0
2017-01-08T06:08:43.083Z,0
2017-01-08T06:09:23.601Z,0
2017-01-08T06:10:04.078Z,0
2017-01-08T06:10:44.553Z,0
2017-01-08T06:11:25.026Z,0
2017-01-08T06:12:05.519Z,0
2017-01-08T06:12:45.994Z,0
2017-01-08T06:13:26.465Z,0
2017-01-08T06:14:06.973Z,0
2017-01-08T06:14:47.465Z,0
2017-01-08T06:15:27.956Z,0
2017-01-08T06:16:08.433Z,0
2017-01-08T06:16:48.922Z,0
2017-01-08T06:17:29.399Z,0
2017-01-08T06:18:09.896Z,0
2017-01-08T06:18:50.370Z,0
2017-01-08T06:19:30.863Z,0
2017-01-08T06:20:11.329Z,0
2017-01-08T06:20:51.820Z,0
2017-01-08T06:21:32.299Z,0
2017-01-08T06:22:12.762Z,0
2017-01-08T06:22:53.247Z,0
2017-01-08T06:23:33.752Z,0
2017-01-08T06:24:14.273Z,0
2017-01-08T06:24:54.737Z,0
2017-01-08T06:25:35.215Z,0
2017-01-08T06:26:15.706Z,0
2017-01-08T06:26:56.202Z,0
2017-01-08T06:27:36.686Z,0
2017-01-08T06:28:17.166Z,0
2017-01-08T06:28:57.696Z,0
2017-01-08T06:29:38.184Z,0
2017-01-08T06:30:18.662Z,0
2017-01-08T06:30:59.173Z,0
2017-01-08T06:31:39.632Z,0
2017-01-08T06:32:20.170Z,0
2017-01-08T06:33:00.638Z,0
2017-01-08T06:33:41.151Z,0
2017-01-08T06:34:21.632Z,0
2017-01-08T06:35:02.111Z,0
2017-01-08T06:35:42.595Z,0
2017-01-08T06:36:23.084Z,0
2017-01-08T06:37:03.576Z,0
2017-01-08T06:37:44.070Z,0
2017-01-08T06:39:57.205Z,0
2017-01-08T06:40:37.672Z,0
2017-01-08T06:41:18.172Z,0
2017-01-08T06:41:58.662Z,0
2017-01-08T06:42:39.133Z,0
2017-01-08T06:43:19.615Z,0
2017-01-08T06:44:00.107Z,0
2017-01-08T06:44:40.583Z,0
2017-01-08T06:45:21.069Z,0
2017-01-08T06:46:01.520Z,0
2017-01-08T06:46:42.004Z,0
2017-01-08T06:47:22.471Z,0
2017-01-08T06:48:02.973Z,0
2017-01-08T06:48:43.434Z,0
2017-01-08T06:49:23.920Z,0
2017-01-08T06:50:04.408Z,0
2017-01-08T06:50:44.896Z,0
2017-01-08T06:51:25.353Z,0
2017-01-08T06:52:05.825Z,0
2017-01-08T06:52:46.303Z,0
2017-01-08T06:53:26.808Z,0
2017-01-08T06:54:07.315Z,0
2017-01-08T06:54:47.805Z,0
2017-01-08T06:55:28.305Z,0
2017-01-08T06:56:08.775Z,0
2017-01-08T06:56:49.261Z,0
2017-01-08T06:57:29.767Z,0
2017-01-08T06:58:10.270Z,0
2017-01-08T06:58:50.767Z,0
2017-01-08T06:59:31.244Z,0
2017-01-08T07:00:11.741Z,0
2017-01-08T07:00:52.235Z,0
2017-01-08T07:01:32.699Z,0
2017-01-08T07:02:13.203Z,0
2017-01-08T07:02:53.700Z,0
2017-01-08T07:03:34.197Z,0
2017-01-08T07:04:14.671Z,0
2017-01-08T07:04:55.192Z,4
2017-01-08T07:05:35.659Z,4
2017-01-08T07:06:16.171Z,0
2017-01-08T07:06:56.640Z,0
2017-01-08T07:07:37.149Z,0
2017-01-08T07:08:17.658Z,0
2017-01-08T07:08:58.100Z,0
2017-01-08T07:09:38.600Z,4
2017-01-08T07:10:19.105Z,4
2017-01-08T07:10:59.628Z,0
2017-01-08T07:11:40.103Z,4
2017-01-08T07:12:20.582Z,4
2017-01-08T07:13:01.082Z,4
2017-01-08T07:13:41.568Z,4
2017-01-08T07:14:22.061Z,4
2017-01-08T07:15:02.541Z,4
2017-01-08T07:15:43.007Z,4
2017-01-08T07:16:23.488Z,8
2017-01-08T07:17:03.997Z,4
2017-01-08T07:17:44.454Z,8
2017-01-08T07:18:24.913Z,8
2017-01-08T07:19:05.400Z,8
2017-01-08T07:19:45.883Z,12
2017-01-08T07:20:26.322Z,12
2017-01-08T07:21:06.809Z,12
2017-01-08T07:21:47.288Z,12
2017-01-08T07:22:27.783Z,16
2017-01-08T07:23:08.266Z,16
2017-01-08T07:23:48.762Z,20
2017-01-08T07:24:29.254Z,20
2017-01-08T07:25:09.743Z,20
2017-01-08T07:25:50.219Z,20
2017-01-08T07:26:30.702Z,24
2017-01-08T07:27:11.191Z,24
2017-01-08T07:27:51.662Z,24
2017-01-08T07:28:32.141Z,28
2017-01-08T07:29:12.638Z,28
2017-01-08T07:29:53.124Z,32
2017-01-08T07:30:33.596Z,40
2017-01-08T07:31:14.073Z,40
2017-01-08T07:31:54.569Z,44
2017-01-08T07:32:35.095Z,44
2017-01-08T07:33:15.581Z,48
2017-01-08T07:33:56.080Z,52
2017-01-08T07:34:36.579Z,52
2017-01-08T07:35:17.065Z,56
2017-01-08T07:35:57.551Z,64
2017-01-08T07:36:38.027Z,68
2017-01-08T07:37:18.514Z,72
2017-01-08T07:37:59.012Z,76
2017-01-08T07:38:39.492Z,84
2017-01-08T07:39:19.984Z,88
2017-01-08T07:40:00.461Z,88
2017-01-08T07:40:40.956Z,88
2017-01-08T07:41:21.461Z,88
2017-01-08T07:42:01.942Z,92
2017-01-08T07:42:42.437Z,92
2017-01-08T07:43:22.931Z,96
2017-01-08T07:44:03.407Z,100
2017-01-08T07:44:43.890Z,108
2017-01-08T07:45:24.404Z,112
2017-01-08T07:46:04.876Z,124
2017-01-08T07:46:45.367Z,132
2017-01-08T07:47:25.858Z,144
2017-01-08T07:48:06.375Z,156
2017-01-08T07:48:46.858Z,164
2017-01-08T07:49:27.347Z,176
2017-01-08T07:50:07.838Z,188
2017-01-08T07:50:48.320Z,196
2017-01-08T07:51:28.806Z,208
2017-01-08T07:52:09.309Z,216
2017-01-08T07:52:49.870Z,224
2017-01-08T07:53:30.384Z,228
2017-01-08T07:54:10.929Z,236
2017-01-08T07:54:51.452Z,240
2017-01-08T07:55:32.058Z,252
2017-01-08T07:56:12.555Z,260
2017-01-08T07:56:53.050Z,276
2017-01-08T07:57:33.581Z,292
2017-01-08T07:58:14.086Z,304
2017-01-08T07:58:54.601Z,312
2017-01-08T07:59:35.191Z,320
2017-01-08T08:00:15.672Z,328
2017-01-08T08:00:56.154Z,336
2017-01-08T08:01:36.727Z,348
2017-01-08T08:02:17.204Z,360
2017-01-08T08:02:57.829Z,368
2017-01-08T08:03:38.283Z,376
2017-01-08T08:04:18.768Z,380
2017-01-08T08:04:59.271Z,384
2017-01-08T08:05:39.741Z,388
2017-01-08T08:06:20.835Z,396
2017-01-08T08:07:01.348Z,412
2017-01-08T08:07:41.828Z,432
2017-01-08T08:08:22.448Z,456
2017-01-08T08:09:02.944Z,476
2017-01-08T08:09:43.434Z,476
2017-01-08T08:10:23.926Z,480
2017-01-08T08:11:04.422Z,492
2017-01-08T08:11:44.897Z,516
2017-01-08T08:12:25.364Z,540
2017-01-08T08:13:05.881Z,560
2017-01-08T08:13:46.388Z,576
2017-01-08T08:14:26.923Z,584
2017-01-08T08:15:07.430Z,572
2017-01-08T08:15:47.883Z,572
2017-01-08T08:16:28.505Z,572
2017-01-08T08:17:08.957Z,588
2017-01-08T08:17:49.445Z,624
2017-01-08T08:18:29.916Z,672
2017-01-08T08:19:10.412Z,716
2017-01-08T08:19:50.881Z,744
2017-01-08T08:20:31.397Z,752
2017-01-08T08:21:11.982Z,760
2017-01-08T08:21:52.506Z,772
2017-01-08T08:22:32.983Z,788
2017-01-08T08:23:13.494Z,800
2017-01-08T08:23:53.976Z,788
2017-01-08T08:24:34.437Z,772
2017-01-08T08:25:14.926Z,756
2017-01-08T08:25:55.408Z,748
2017-01-08T08:26:35.908Z,768
2017-01-08T08:27:16.445Z,808
2017-01-08T08:27:56.907Z,844
2017-01-08T08:28:37.410Z,864
2017-01-08T08:29:17.877Z,876
2017-01-08T08:29:58.382Z,888
2017-01-08T08:30:38.842Z,908
2017-01-08T08:31:19.311Z,920
2017-01-08T08:31:59.813Z,924
2017-01-08T08:32:40.291Z,928
2017-01-08T08:33:20.773Z,936
2017-01-08T08:34:01.283Z,968
2017-01-08T08:34:41.762Z,1024
2017-01-08T08:35:22.226Z,1088
2017-01-08T08:36:02.696Z,1116
2017-01-08T08:36:43.200Z,1112
2017-01-08T08:37:23.683Z,1104
2017-01-08T08:38:04.191Z,1104
2017-01-08T08:38:44.659Z,1128
2017-01-08T08:39:25.137Z,1172
2017-01-08T08:40:05.640Z,1200
2017-01-08T08:40:46.100Z,1216
2017-01-08T08:41:26.581Z,1224
2017-01-08T08:42:07.097Z,1232
2017-01-08T08:42:47.572Z,1224
2017-01-08T08:43:28.049Z,1200
2017-01-08T08:44:08.550Z,1200
2017-01-08T08:44:49.026Z,1212
2017-01-08T08:45:29.517Z,1240
2017-01-08T08:46:10.029Z,1276
2017-01-08T08:46:50.496Z,1320
2017-01-08T08:47:30.988Z,1356
2017-01-08T08:48:11.463Z,1388
2017-01-08T08:48:51.929Z,1412
2017-01-08T08:49:32.432Z,1440
2017-01-08T08:50:12.897Z,1436
2017-01-08T08:50:53.391Z,1416
2017-01-08T08:51:33.867Z,1392
2017-01-08T08:52:14.352Z,1372
2017-01-08T08:52:54.817Z,1344
2017-01-08T08:53:35.327Z,1308
2017-01-08T08:54:15.783Z,1252
2017-01-08T08:54:56.284Z,1176
2017-01-08T08:55:36.778Z,1120
2017-01-08T08:56:17.282Z,1076
2017-01-08T08:56:57.846Z,1052
2017-01-08T08:57:38.333Z,1028
2017-01-08T08:58:18.841Z,1020
2017-01-08T08:58:59.321Z,1004
2017-01-08T08:59:39.811Z,992
2017-01-08T09:00:20.325Z,972
2017-01-08T09:01:00.786Z,944
2017-01-08T09:01:41.261Z,912
2017-01-08T09:02:21.762Z,884
2017-01-08T09:03:02.232Z,872
2017-01-08T09:03:42.710Z,888
2017-01-08T09:04:23.191Z,924
2017-01-08T09:05:03.669Z,952
2017-01-08T09:05:44.167Z,968
2017-01-08T09:06:24.644Z,964
2017-01-08T09:07:05.139Z,928
2017-01-08T09:07:45.601Z,900
2017-01-08T09:08:26.090Z,868
2017-01-08T09:09:06.581Z,836
2017-01-08T09:09:47.077Z,852
2017-01-08T09:10:27.622Z,924
2017-01-08T09:11:08.119Z,976
2017-01-08T09:11:48.621Z,1004
2017-01-08T09:12:29.113Z,1024
2017-01-08T09:13:09.593Z,1056
2017-01-08T09:13:50.095Z,1100
2017-01-08T09:14:30.558Z,1136
2017-01-08T09:15:11.052Z,1152
2017-01-08T09:15:51.531Z,1156
2017-01-08T09:16:32.039Z,1156
2017-01-08T09:17:12.543Z,1156
2017-01-08T09:17:53.012Z,1140
2017-01-08T09:18:33.512Z,1132
2017-01-08T09:19:13.995Z,1136
2017-01-08T09:19:54.479Z,1128
2017-01-08T09:20:34.974Z,1124
2017-01-08T09:21:15.476Z,1136
2017-01-08T09:21:55.937Z,1160
2017-01-08T09:22:36.461Z,1188
2017-01-08T09:23:16.957Z,1212
2017-01-08T09:23:57.465Z,1228
2017-01-08T09:24:37.952Z,1204
2017-01-08T09:25:18.429Z,1148
2017-01-08T09:25:58.921Z,1132
2017-01-08T09:26:39.418Z,1148
2017-01-08T09:27:19.912Z,1220
2017-01-08T09:28:00.383Z,1244
2017-01-08T09:28:40.890Z,1196
2017-01-08T09:29:21.364Z,1168
2017-01-08T09:30:01.883Z,1288
2017-01-08T09:30:42.338Z,1344
2017-01-08T09:31:22.817Z,1360
2017-01-08T09:32:03.336Z,1368
2017-01-08T09:32:43.792Z,1364
2017-01-08T09:33:24.309Z,1352
2017-01-08T09:34:04.798Z,1328
2017-01-08T09:34:45.320Z,1292
2017-01-08T09:35:25.806Z,1236
2017-01-08T09:36:06.289Z,1188
2017-01-08T09:36:46.810Z,1172
2017-01-08T09:37:27.312Z,1172
2017-01-08T09:38:07.807Z,1188
2017-01-08T09:38:48.289Z,1232
2017-01-08T09:39:28.782Z,1280
2017-01-08T09:40:09.264Z,1340
2017-01-08T09:40:49.745Z,1408
2017-01-08T09:41:30.235Z,1488
2017-01-08T09:42:10.735Z,1568
2017-01-08T09:42:51.232Z,1640
2017-01-08T09:43:31.740Z,1724
2017-01-08T09:44:12.206Z,1816
2017-01-08T09:44:52.690Z,1880
2017-01-08T09:45:33.192Z,1904
2017-01-08T09:46:13.633Z,1908
2017-01-08T09:46:54.122Z,1896
2017-01-08T09:47:34.624Z,1872
2017-01-08T09:48:15.124Z,1820
2017-01-08T09:48:55.599Z,1748
2017-01-08T09:49:36.075Z,1680